sensor_id;sensor_type;location;lat;lon;timestamp;pressure;altitude;pressure_sealevel;temperature;humidity
62946;BME280;52164;52.212;-1.010;2023-03-04T00:00:37;102182.84;;;5.08;65.00
62946;BME280;52164;52.212;-1.010;2023-03-04T00:03:07;102180.84;;;5.07;64.97
62946;BME280;52164;52.212;-1.010;2023-03-04T00:05:35;102182.73;;;5.06;65.32
62946;BME280;52164;52.212;-1.010;2023-03-04T00:08:00;102182.52;;;5.05;65.30
62946;BME280;52164;52.212;-1.010;2023-03-04T00:10:25;102180.86;;;5.04;65.40
62946;BME280;52164;52.212;-1.010;2023-03-04T00:12:50;102178.51;;;5.03;65.53
62946;BME280;52164;52.212;-1.010;2023-03-04T00:15:16;102179.05;;;5.03;65.42
62946;BME280;52164;52.212;-1.010;2023-03-04T00:17:44;102180.11;;;5.03;65.34
62946;BME280;52164;52.212;-1.010;2023-03-04T00:20:10;102178.62;;;5.05;65.46
62946;BME280;52164;52.212;-1.010;2023-03-04T00:22:35;102181.95;;;5.08;65.38
62946;BME280;52164;52.212;-1.010;2023-03-04T00:25:01;102184.91;;;5.10;65.39
62946;BME280;52164;52.212;-1.010;2023-03-04T00:27:26;102180.45;;;5.14;65.52
62946;BME280;52164;52.212;-1.010;2023-03-04T00:29:51;102184.30;;;5.17;65.39
62946;BME280;52164;52.212;-1.010;2023-03-04T00:32:16;102183.92;;;5.20;65.69
62946;BME280;52164;52.212;-1.010;2023-03-04T00:34:42;102182.80;;;5.22;65.55
62946;BME280;52164;52.212;-1.010;2023-03-04T00:37:07;102183.28;;;5.24;65.40
62946;BME280;52164;52.212;-1.010;2023-03-04T00:39:32;102185.28;;;5.26;65.17
62946;BME280;52164;52.212;-1.010;2023-03-04T00:41:58;102179.09;;;5.26;65.13
62946;BME280;52164;52.212;-1.010;2023-03-04T00:44:23;102184.27;;;5.26;64.83
62946;BME280;52164;52.212;-1.010;2023-03-04T00:46:48;102186.13;;;5.25;64.91
62946;BME280;52164;52.212;-1.010;2023-03-04T00:49:14;102182.75;;;5.21;64.86
62946;BME280;52164;52.212;-1.010;2023-03-04T00:51:39;102184.00;;;5.17;64.76
62946;BME280;52164;52.212;-1.010;2023-03-04T00:54:04;102185.65;;;5.15;64.78
62946;BME280;52164;52.212;-1.010;2023-03-04T00:56:29;102189.48;;;5.14;64.80
62946;BME280;52164;52.212;-1.010;2023-03-04T00:58:55;102190.39;;;5.11;64.83
62946;BME280;52164;52.212;-1.010;2023-03-04T01:01:20;102190.33;;;5.09;64.87
62946;BME280;52164;52.212;-1.010;2023-03-04T01:03:45;102194.31;;;5.07;64.75
62946;BME280;52164;52.212;-1.010;2023-03-04T01:06:11;102194.07;;;5.06;64.99
62946;BME280;52164;52.212;-1.010;2023-03-04T01:08:36;102191.90;;;5.05;65.01
62946;BME280;52164;52.212;-1.010;2023-03-04T01:11:02;102194.86;;;5.04;65.21
62946;BME280;52164;52.212;-1.010;2023-03-04T01:13:27;102191.29;;;5.03;65.17
62946;BME280;52164;52.212;-1.010;2023-03-04T01:15:52;102189.16;;;5.04;65.16
62946;BME280;52164;52.212;-1.010;2023-03-04T01:18:18;102186.01;;;5.01;65.27
62946;BME280;52164;52.212;-1.010;2023-03-04T01:20:43;102189.63;;;4.99;65.24
62946;BME280;52164;52.212;-1.010;2023-03-04T01:23:08;102191.66;;;4.97;65.29
62946;BME280;52164;52.212;-1.010;2023-03-04T01:25:34;102193.69;;;4.95;65.22
62946;BME280;52164;52.212;-1.010;2023-03-04T01:27:59;102193.78;;;4.93;65.45
62946;BME280;52164;52.212;-1.010;2023-03-04T01:30:24;102191.91;;;4.91;65.37
62946;BME280;52164;52.212;-1.010;2023-03-04T01:32:49;102191.37;;;4.91;65.47
62946;BME280;52164;52.212;-1.010;2023-03-04T01:35:15;102185.33;;;4.91;65.34
62946;BME280;52164;52.212;-1.010;2023-03-04T01:37:40;102184.54;;;4.89;65.09
62946;BME280;52164;52.212;-1.010;2023-03-04T01:40:06;102185.77;;;4.89;65.04
62946;BME280;52164;52.212;-1.010;2023-03-04T01:42:32;102181.83;;;4.88;64.99
62946;BME280;52164;52.212;-1.010;2023-03-04T01:44:58;102179.65;;;4.86;65.14
62946;BME280;52164;52.212;-1.010;2023-03-04T01:47:24;102178.34;;;4.85;65.10
62946;BME280;52164;52.212;-1.010;2023-03-04T01:49:54;102174.00;;;4.83;65.16
62946;BME280;52164;52.212;-1.010;2023-03-04T01:52:20;102173.42;;;4.82;65.41
62946;BME280;52164;52.212;-1.010;2023-03-04T01:54:46;102170.06;;;4.82;65.21
62946;BME280;52164;52.212;-1.010;2023-03-04T01:57:27;102166.83;;;4.81;64.91
62946;BME280;52164;52.212;-1.010;2023-03-04T02:00:56;102164.50;;;4.81;64.97
62946;BME280;52164;52.212;-1.010;2023-03-04T02:02:37;102157.58;;;4.80;64.97
62946;BME280;52164;52.212;-1.010;2023-03-04T02:05:02;102157.90;;;4.80;65.02
62946;BME280;52164;52.212;-1.010;2023-03-04T02:07:28;102156.55;;;4.77;65.13
62946;BME280;52164;52.212;-1.010;2023-03-04T02:09:53;102151.09;;;4.78;65.33
62946;BME280;52164;52.212;-1.010;2023-03-04T02:12:18;102147.73;;;4.78;65.18
62946;BME280;52164;52.212;-1.010;2023-03-04T02:14:44;102143.49;;;4.78;65.58
62946;BME280;52164;52.212;-1.010;2023-03-04T02:17:10;102145.29;;;4.79;65.44
62946;BME280;52164;52.212;-1.010;2023-03-04T02:22:04;102141.16;;;4.77;65.61
62946;BME280;52164;52.212;-1.010;2023-03-04T02:24:32;102140.61;;;4.76;65.39
62946;BME280;52164;52.212;-1.010;2023-03-04T02:27:00;102140.10;;;4.77;65.51
62946;BME280;52164;52.212;-1.010;2023-03-04T02:29:25;102137.44;;;4.77;65.52
62946;BME280;52164;52.212;-1.010;2023-03-04T02:31:52;102135.27;;;4.76;65.56
62946;BME280;52164;52.212;-1.010;2023-03-04T02:36:45;102134.81;;;4.74;65.37
62946;BME280;52164;52.212;-1.010;2023-03-04T02:41:37;102134.55;;;4.75;65.52
62946;BME280;52164;52.212;-1.010;2023-03-04T02:44:03;102133.71;;;4.76;65.50
62946;BME280;52164;52.212;-1.010;2023-03-04T02:46:33;102134.34;;;4.79;65.63
62946;BME280;52164;52.212;-1.010;2023-03-04T02:48:59;102133.55;;;4.81;65.57
62946;BME280;52164;52.212;-1.010;2023-03-04T02:51:24;102133.16;;;4.83;65.60
62946;BME280;52164;52.212;-1.010;2023-03-04T02:53:49;102123.14;;;4.85;65.77
62946;BME280;52164;52.212;-1.010;2023-03-04T02:56:14;102121.33;;;4.88;65.83
62946;BME280;52164;52.212;-1.010;2023-03-04T02:58:40;102119.30;;;4.90;65.67
62946;BME280;52164;52.212;-1.010;2023-03-04T03:01:05;102118.84;;;4.91;65.67
62946;BME280;52164;52.212;-1.010;2023-03-04T03:03:30;102122.84;;;4.90;65.51
62946;BME280;52164;52.212;-1.010;2023-03-04T03:05:56;102119.77;;;4.88;65.30
62946;BME280;52164;52.212;-1.010;2023-03-04T03:08:21;102120.77;;;4.87;65.30
62946;BME280;52164;52.212;-1.010;2023-03-04T03:10:47;102122.32;;;4.86;65.13
62946;BME280;52164;52.212;-1.010;2023-03-04T03:13:12;102124.56;;;4.85;65.26
62946;BME280;52164;52.212;-1.010;2023-03-04T03:15:37;102124.98;;;4.83;65.28
62946;BME280;52164;52.212;-1.010;2023-03-04T03:18:07;102123.90;;;4.83;65.35
62946;BME280;52164;52.212;-1.010;2023-03-04T03:20:36;102123.88;;;4.82;65.34
62946;BME280;52164;52.212;-1.010;2023-03-04T03:23:01;102123.06;;;4.80;65.41
62946;BME280;52164;52.212;-1.010;2023-03-04T03:25:27;102119.75;;;4.77;65.38
62946;BME280;52164;52.212;-1.010;2023-03-04T03:27:52;102120.34;;;4.74;65.52
62946;BME280;52164;52.212;-1.010;2023-03-04T03:30:17;102121.89;;;4.73;65.50
62946;BME280;52164;52.212;-1.010;2023-03-04T03:32:43;102118.64;;;4.72;65.41
62946;BME280;52164;52.212;-1.010;2023-03-04T03:35:08;102117.41;;;4.72;65.40
62946;BME280;52164;52.212;-1.010;2023-03-04T03:37:33;102116.29;;;4.71;65.39
62946;BME280;52164;52.212;-1.010;2023-03-04T03:39:59;102117.63;;;4.70;65.36
62946;BME280;52164;52.212;-1.010;2023-03-04T03:42:24;102118.26;;;4.68;65.31
62946;BME280;52164;52.212;-1.010;2023-03-04T03:44:49;102113.69;;;4.65;65.14
62946;BME280;52164;52.212;-1.010;2023-03-04T03:47:15;102115.30;;;4.62;65.24
62946;BME280;52164;52.212;-1.010;2023-03-04T03:49:40;102116.32;;;4.62;65.28
62946;BME280;52164;52.212;-1.010;2023-03-04T03:52:07;102116.11;;;4.61;65.31
62946;BME280;52164;52.212;-1.010;2023-03-04T03:54:33;102112.38;;;4.60;65.40
62946;BME280;52164;52.212;-1.010;2023-03-04T03:56:58;102112.15;;;4.59;65.45
62946;BME280;52164;52.212;-1.010;2023-03-04T03:59:23;102108.19;;;4.58;65.56
62946;BME280;52164;52.212;-1.010;2023-03-04T04:01:48;102103.30;;;4.56;65.55
62946;BME280;52164;52.212;-1.010;2023-03-04T04:04:14;102101.83;;;4.54;65.45
62946;BME280;52164;52.212;-1.010;2023-03-04T04:06:39;102104.23;;;4.53;65.53
62946;BME280;52164;52.212;-1.010;2023-03-04T04:09:04;102104.16;;;4.51;65.24
62946;BME280;52164;52.212;-1.010;2023-03-04T04:11:30;102100.55;;;4.50;65.07
62946;BME280;52164;52.212;-1.010;2023-03-04T04:13:55;102103.17;;;4.50;65.05
62946;BME280;52164;52.212;-1.010;2023-03-04T04:16:20;102102.64;;;4.49;64.92
62946;BME280;52164;52.212;-1.010;2023-03-04T04:18:46;102102.82;;;4.49;65.09
62946;BME280;52164;52.212;-1.010;2023-03-04T04:21:15;102101.89;;;4.48;65.12
62946;BME280;52164;52.212;-1.010;2023-03-04T04:23:40;102105.55;;;4.47;64.98
62946;BME280;52164;52.212;-1.010;2023-03-04T04:26:05;102106.20;;;4.46;65.23
62946;BME280;52164;52.212;-1.010;2023-03-04T04:28:31;102111.98;;;4.46;65.29
62946;BME280;52164;52.212;-1.010;2023-03-04T04:30:56;102110.13;;;4.44;65.41
62946;BME280;52164;52.212;-1.010;2023-03-04T04:33:21;102114.91;;;4.44;65.47
62946;BME280;52164;52.212;-1.010;2023-03-04T04:35:47;102109.40;;;4.44;65.49
62946;BME280;52164;52.212;-1.010;2023-03-04T04:38:12;102110.44;;;4.43;65.69
62946;BME280;52164;52.212;-1.010;2023-03-04T04:40:37;102110.58;;;4.42;65.67
62946;BME280;52164;52.212;-1.010;2023-03-04T04:43:03;102116.77;;;4.42;65.46
62946;BME280;52164;52.212;-1.010;2023-03-04T04:45:28;102119.40;;;4.42;65.56
62946;BME280;52164;52.212;-1.010;2023-03-04T04:47:54;102122.42;;;4.42;65.81
62946;BME280;52164;52.212;-1.010;2023-03-04T04:50:22;102122.45;;;4.43;65.68
62946;BME280;52164;52.212;-1.010;2023-03-04T04:52:48;102121.02;;;4.43;65.98
62946;BME280;52164;52.212;-1.010;2023-03-04T04:55:13;102117.55;;;4.44;65.86
62946;BME280;52164;52.212;-1.010;2023-03-04T04:57:38;102121.77;;;4.47;65.93
62946;BME280;52164;52.212;-1.010;2023-03-04T05:00:04;102121.89;;;4.49;66.06
62946;BME280;52164;52.212;-1.010;2023-03-04T05:02:30;102120.73;;;4.51;66.04
62946;BME280;52164;52.212;-1.010;2023-03-04T05:04:55;102121.20;;;4.53;66.08
62946;BME280;52164;52.212;-1.010;2023-03-04T05:07:20;102123.30;;;4.56;65.96
62946;BME280;52164;52.212;-1.010;2023-03-04T05:09:45;102124.48;;;4.58;66.12
62946;BME280;52164;52.212;-1.010;2023-03-04T05:12:11;102126.40;;;4.61;66.06
62946;BME280;52164;52.212;-1.010;2023-03-04T05:14:36;102129.36;;;4.64;66.26
62946;BME280;52164;52.212;-1.010;2023-03-04T05:17:01;102130.64;;;4.65;65.98
62946;BME280;52164;52.212;-1.010;2023-03-04T05:19:27;102130.60;;;4.64;65.91
62946;BME280;52164;52.212;-1.010;2023-03-04T05:21:55;102130.45;;;4.64;66.19
62946;BME280;52164;52.212;-1.010;2023-03-04T05:24:20;102135.07;;;4.65;65.96
62946;BME280;52164;52.212;-1.010;2023-03-04T05:26:45;102131.94;;;4.66;65.72
62946;BME280;52164;52.212;-1.010;2023-03-04T05:29:11;102136.92;;;4.67;65.97
62946;BME280;52164;52.212;-1.010;2023-03-04T05:31:36;102140.13;;;4.67;65.97
62946;BME280;52164;52.212;-1.010;2023-03-04T05:34:01;102139.05;;;4.67;65.98
62946;BME280;52164;52.212;-1.010;2023-03-04T05:36:26;102143.41;;;4.66;65.56
62946;BME280;52164;52.212;-1.010;2023-03-04T05:38:52;102143.50;;;4.64;65.63
62946;BME280;52164;52.212;-1.010;2023-03-04T05:41:17;102142.87;;;4.62;65.50
62946;BME280;52164;52.212;-1.010;2023-03-04T05:43:46;102143.59;;;4.58;65.57
62946;BME280;52164;52.212;-1.010;2023-03-04T05:46:13;102144.38;;;4.57;65.54
62946;BME280;52164;52.212;-1.010;2023-03-04T05:48:39;102146.95;;;4.55;65.82
62946;BME280;52164;52.212;-1.010;2023-03-04T05:51:04;102144.38;;;4.53;65.75
62946;BME280;52164;52.212;-1.010;2023-03-04T05:53:30;102144.31;;;4.52;66.12
62946;BME280;52164;52.212;-1.010;2023-03-04T05:55:55;102140.64;;;4.49;65.81
62946;BME280;52164;52.212;-1.010;2023-03-04T05:58:20;102141.79;;;4.48;66.12
62946;BME280;52164;52.212;-1.010;2023-03-04T06:00:46;102140.61;;;4.45;66.09
62946;BME280;52164;52.212;-1.010;2023-03-04T06:03:14;102140.68;;;4.43;66.16
62946;BME280;52164;52.212;-1.010;2023-03-04T06:05:40;102137.73;;;4.40;66.25
62946;BME280;52164;52.212;-1.010;2023-03-04T06:08:05;102138.34;;;4.39;66.49
62946;BME280;52164;52.212;-1.010;2023-03-04T06:10:30;102137.10;;;4.38;66.15
62946;BME280;52164;52.212;-1.010;2023-03-04T06:12:55;102133.92;;;4.38;66.58
62946;BME280;52164;52.212;-1.010;2023-03-04T06:15:21;102133.98;;;4.40;66.61
62946;BME280;52164;52.212;-1.010;2023-03-04T06:17:46;102136.16;;;4.41;66.65
62946;BME280;52164;52.212;-1.010;2023-03-04T06:20:11;102135.66;;;4.41;66.54
62946;BME280;52164;52.212;-1.010;2023-03-04T06:22:40;102133.36;;;4.41;66.10
62946;BME280;52164;52.212;-1.010;2023-03-04T06:25:08;102136.18;;;4.41;66.41
62946;BME280;52164;52.212;-1.010;2023-03-04T06:27:33;102135.80;;;4.40;66.01
62946;BME280;52164;52.212;-1.010;2023-03-04T06:29:58;102135.29;;;4.41;65.90
62946;BME280;52164;52.212;-1.010;2023-03-04T06:32:25;102137.35;;;4.40;65.96
62946;BME280;52164;52.212;-1.010;2023-03-04T06:34:51;102136.63;;;4.39;65.92
62946;BME280;52164;52.212;-1.010;2023-03-04T06:37:16;102141.02;;;4.39;65.84
62946;BME280;52164;52.212;-1.010;2023-03-04T06:39:41;102144.89;;;4.39;66.03
62946;BME280;52164;52.212;-1.010;2023-03-04T06:42:06;102144.84;;;4.38;66.09
62946;BME280;52164;52.212;-1.010;2023-03-04T06:44:32;102144.60;;;4.36;66.00
62946;BME280;52164;52.212;-1.010;2023-03-04T06:46:57;102145.20;;;4.34;66.02
62946;BME280;52164;52.212;-1.010;2023-03-04T06:49:22;102148.88;;;4.34;66.12
62946;BME280;52164;52.212;-1.010;2023-03-04T06:51:48;102147.96;;;4.33;66.27
62946;BME280;52164;52.212;-1.010;2023-03-04T06:54:13;102148.84;;;4.33;66.29
62946;BME280;52164;52.212;-1.010;2023-03-04T06:56:39;102150.34;;;4.35;66.02
62946;BME280;52164;52.212;-1.010;2023-03-04T06:59:04;102155.69;;;4.35;66.03
62946;BME280;52164;52.212;-1.010;2023-03-04T07:01:29;102158.52;;;4.36;65.93
62946;BME280;52164;52.212;-1.010;2023-03-04T07:03:55;102157.52;;;4.36;65.88
62946;BME280;52164;52.212;-1.010;2023-03-04T07:06:22;102160.61;;;4.38;66.09
62946;BME280;52164;52.212;-1.010;2023-03-04T07:08:48;102159.50;;;4.41;66.11
62946;BME280;52164;52.212;-1.010;2023-03-04T07:11:14;102163.02;;;4.44;66.09
62946;BME280;52164;52.212;-1.010;2023-03-04T07:13:39;102158.95;;;4.48;66.23
62946;BME280;52164;52.212;-1.010;2023-03-04T07:16:07;102160.05;;;4.52;65.92
62946;BME280;52164;52.212;-1.010;2023-03-04T07:18:32;102165.74;;;4.56;66.09
62946;BME280;52164;52.212;-1.010;2023-03-04T07:20:58;102167.86;;;4.59;66.04
62946;BME280;52164;52.212;-1.010;2023-03-04T07:23:25;102164.79;;;4.62;66.08
62946;BME280;52164;52.212;-1.010;2023-03-04T07:25:51;102167.27;;;4.66;66.03
62946;BME280;52164;52.212;-1.010;2023-03-04T07:28:16;102167.84;;;4.66;65.84
62946;BME280;52164;52.212;-1.010;2023-03-04T07:30:42;102162.75;;;4.67;66.00
62946;BME280;52164;52.212;-1.010;2023-03-04T07:33:07;102164.05;;;4.68;65.73
62946;BME280;52164;52.212;-1.010;2023-03-04T07:35:32;102164.23;;;4.68;65.66
62946;BME280;52164;52.212;-1.010;2023-03-04T07:37:58;102167.95;;;4.68;65.69
62946;BME280;52164;52.212;-1.010;2023-03-04T07:40:24;102173.38;;;4.67;65.89
62946;BME280;52164;52.212;-1.010;2023-03-04T07:42:49;102175.86;;;4.67;66.00
62946;BME280;52164;52.212;-1.010;2023-03-04T07:45:15;102179.15;;;4.66;65.80
62946;BME280;52164;52.212;-1.010;2023-03-04T07:47:41;102177.65;;;4.64;66.13
62946;BME280;52164;52.212;-1.010;2023-03-04T07:50:06;102182.97;;;4.64;66.16
62946;BME280;52164;52.212;-1.010;2023-03-04T07:52:31;102181.36;;;4.64;65.97
62946;BME280;52164;52.212;-1.010;2023-03-04T07:54:57;102180.95;;;4.63;66.20
62946;BME280;52164;52.212;-1.010;2023-03-04T07:57:22;102184.36;;;4.64;66.13
62946;BME280;52164;52.212;-1.010;2023-03-04T07:59:47;102186.17;;;4.65;66.22
62946;BME280;52164;52.212;-1.010;2023-03-04T08:02:13;102187.80;;;4.65;66.20
62946;BME280;52164;52.212;-1.010;2023-03-04T08:04:39;102190.79;;;4.66;65.83
62946;BME280;52164;52.212;-1.010;2023-03-04T08:07:04;102193.63;;;4.66;66.05
62946;BME280;52164;52.212;-1.010;2023-03-04T08:09:30;102191.06;;;4.67;66.29
62946;BME280;52164;52.212;-1.010;2023-03-04T08:11:55;102194.93;;;4.67;66.05
62946;BME280;52164;52.212;-1.010;2023-03-04T08:14:20;102193.55;;;4.67;66.06
62946;BME280;52164;52.212;-1.010;2023-03-04T08:16:46;102195.16;;;4.68;65.99
62946;BME280;52164;52.212;-1.010;2023-03-04T08:19:11;102198.90;;;4.68;65.96
62946;BME280;52164;52.212;-1.010;2023-03-04T08:21:36;102197.89;;;4.69;65.63
62946;BME280;52164;52.212;-1.010;2023-03-04T08:24:02;102198.09;;;4.70;65.39
62946;BME280;52164;52.212;-1.010;2023-03-04T08:26:34;102197.11;;;4.71;65.49
62946;BME280;52164;52.212;-1.010;2023-03-04T08:29:03;102196.77;;;4.71;65.49
62946;BME280;52164;52.212;-1.010;2023-03-04T08:31:29;102196.83;;;4.73;65.34
62946;BME280;52164;52.212;-1.010;2023-03-04T08:33:54;102197.23;;;4.74;65.37
62946;BME280;52164;52.212;-1.010;2023-03-04T08:36:20;102196.34;;;4.73;65.11
62946;BME280;52164;52.212;-1.010;2023-03-04T08:38:46;102201.17;;;4.74;65.05
62946;BME280;52164;52.212;-1.010;2023-03-04T08:41:11;102202.50;;;4.77;65.00
62946;BME280;52164;52.212;-1.010;2023-03-04T08:43:36;102205.46;;;4.79;64.95
62946;BME280;52164;52.212;-1.010;2023-03-04T08:46:02;102198.80;;;4.80;64.77
62946;BME280;52164;52.212;-1.010;2023-03-04T08:48:27;102203.48;;;4.82;64.62
62946;BME280;52164;52.212;-1.010;2023-03-04T08:50:53;102199.73;;;4.85;64.57
62946;BME280;52164;52.212;-1.010;2023-03-04T08:53:18;102199.52;;;4.87;64.80
62946;BME280;52164;52.212;-1.010;2023-03-04T08:55:44;102194.65;;;4.89;64.45
62946;BME280;52164;52.212;-1.010;2023-03-04T08:58:09;102196.63;;;4.90;64.29
62946;BME280;52164;52.212;-1.010;2023-03-04T09:00:36;102197.71;;;4.90;64.22
62946;BME280;52164;52.212;-1.010;2023-03-04T09:03:02;102201.30;;;4.91;64.23
62946;BME280;52164;52.212;-1.010;2023-03-04T09:05:28;102199.89;;;4.91;64.18
62946;BME280;52164;52.212;-1.010;2023-03-04T09:07:53;102199.03;;;4.92;64.27
62946;BME280;52164;52.212;-1.010;2023-03-04T09:10:19;102191.48;;;4.93;64.10
62946;BME280;52164;52.212;-1.010;2023-03-04T09:12:44;102194.31;;;4.97;64.03
62946;BME280;52164;52.212;-1.010;2023-03-04T09:15:10;102196.06;;;5.00;63.93
62946;BME280;52164;52.212;-1.010;2023-03-04T09:17:36;102197.10;;;5.03;63.81
62946;BME280;52164;52.212;-1.010;2023-03-04T09:20:01;102194.75;;;5.05;63.76
62946;BME280;52164;52.212;-1.010;2023-03-04T09:22:28;102195.26;;;5.09;63.64
62946;BME280;52164;52.212;-1.010;2023-03-04T09:24:55;102200.17;;;5.11;63.67
62946;BME280;52164;52.212;-1.010;2023-03-04T09:27:23;102200.36;;;5.16;63.83
62946;BME280;52164;52.212;-1.010;2023-03-04T09:29:48;102200.05;;;5.16;63.78
62946;BME280;52164;52.212;-1.010;2023-03-04T09:32:14;102199.63;;;5.19;63.68
62946;BME280;52164;52.212;-1.010;2023-03-04T09:34:39;102199.79;;;5.22;63.52
62946;BME280;52164;52.212;-1.010;2023-03-04T09:37:05;102197.90;;;5.23;63.46
62946;BME280;52164;52.212;-1.010;2023-03-04T09:39:30;102197.80;;;5.25;63.41
62946;BME280;52164;52.212;-1.010;2023-03-04T09:41:56;102194.20;;;5.27;63.44
62946;BME280;52164;52.212;-1.010;2023-03-04T09:46:48;102191.51;;;5.34;63.06
62946;BME280;52164;52.212;-1.010;2023-03-04T09:49:14;102193.83;;;5.38;63.18
62946;BME280;52164;52.212;-1.010;2023-03-04T09:54:09;102195.77;;;5.45;62.87
62946;BME280;52164;52.212;-1.010;2023-03-04T09:56:37;102192.08;;;5.49;62.71
62946;BME280;52164;52.212;-1.010;2023-03-04T10:01:33;102191.66;;;5.55;63.03
62946;BME280;52164;52.212;-1.010;2023-03-04T10:05:05;102187.34;;;5.58;62.93
62946;BME280;52164;52.212;-1.010;2023-03-04T10:06:45;102190.04;;;5.62;62.82
62946;BME280;52164;52.212;-1.010;2023-03-04T10:09:16;102185.67;;;5.68;62.99
62946;BME280;52164;52.212;-1.010;2023-03-04T10:11:45;102184.60;;;5.71;63.10
62946;BME280;52164;52.212;-1.010;2023-03-04T10:19:35;102182.89;;;5.80;62.84
62946;BME280;52164;52.212;-1.010;2023-03-04T10:22:10;102184.74;;;5.82;62.72
62946;BME280;52164;52.212;-1.010;2023-03-04T10:24:38;102184.90;;;5.85;62.48
62946;BME280;52164;52.212;-1.010;2023-03-04T10:27:09;102186.15;;;5.86;62.26
62946;BME280;52164;52.212;-1.010;2023-03-04T10:29:38;102186.41;;;5.88;62.31
62946;BME280;52164;52.212;-1.010;2023-03-04T10:32:03;102184.63;;;5.91;62.20
62946;BME280;52164;52.212;-1.010;2023-03-04T10:34:29;102181.94;;;5.94;62.11
62946;BME280;52164;52.212;-1.010;2023-03-04T10:36:58;102181.27;;;5.98;62.15
62946;BME280;52164;52.212;-1.010;2023-03-04T10:41:57;102181.51;;;5.99;61.96
62946;BME280;52164;52.212;-1.010;2023-03-04T10:44:24;102184.64;;;6.02;62.06
62946;BME280;52164;52.212;-1.010;2023-03-04T10:46:50;102178.73;;;6.05;61.85
62946;BME280;52164;52.212;-1.010;2023-03-04T10:49:17;102177.93;;;6.11;61.66
62946;BME280;52164;52.212;-1.010;2023-03-04T10:51:45;102175.45;;;6.19;61.71
62946;BME280;52164;52.212;-1.010;2023-03-04T10:55:17;102173.11;;;6.30;61.46
62946;BME280;52164;52.212;-1.010;2023-03-04T10:57:04;102169.17;;;6.45;61.03
62946;BME280;52164;52.212;-1.010;2023-03-04T11:02:12;102166.27;;;6.78;60.98
62946;BME280;52164;52.212;-1.010;2023-03-04T11:04:38;102165.24;;;6.96;60.47
62946;BME280;52164;52.212;-1.010;2023-03-04T11:07:07;102165.91;;;7.12;59.72
62946;BME280;52164;52.212;-1.010;2023-03-04T11:09:33;102166.55;;;7.28;59.89
62946;BME280;52164;52.212;-1.010;2023-03-04T11:11:59;102161.80;;;7.38;59.66
62946;BME280;52164;52.212;-1.010;2023-03-04T11:14:25;102154.52;;;7.47;59.13
62946;BME280;52164;52.212;-1.010;2023-03-04T11:16:55;102155.34;;;7.50;58.89
62946;BME280;52164;52.212;-1.010;2023-03-04T11:19:20;102159.17;;;7.53;59.07
62946;BME280;52164;52.212;-1.010;2023-03-04T11:21:47;102160.52;;;7.50;59.05
62946;BME280;52164;52.212;-1.010;2023-03-04T11:24:14;102161.50;;;7.48;58.89
62946;BME280;52164;52.212;-1.010;2023-03-04T11:26:42;102160.64;;;7.45;58.62
62946;BME280;52164;52.212;-1.010;2023-03-04T11:29:13;102161.86;;;7.40;58.75
62946;BME280;52164;52.212;-1.010;2023-03-04T11:31:41;102158.66;;;7.35;58.65
62946;BME280;52164;52.212;-1.010;2023-03-04T11:36:54;102143.60;;;7.32;58.87
62946;BME280;52164;52.212;-1.010;2023-03-04T11:39:32;102138.87;;;7.37;58.71
62946;BME280;52164;52.212;-1.010;2023-03-04T11:42:02;102133.95;;;7.48;58.70
62946;BME280;52164;52.212;-1.010;2023-03-04T11:44:29;102126.02;;;7.59;58.04
62946;BME280;52164;52.212;-1.010;2023-03-04T11:47:01;102121.29;;;7.70;58.22
62946;BME280;52164;52.212;-1.010;2023-03-04T11:51:47;102116.77;;;7.83;58.18
62946;BME280;52164;52.212;-1.010;2023-03-04T11:53:28;102118.72;;;7.92;57.92
62946;BME280;52164;52.212;-1.010;2023-03-04T12:02:20;102103.94;;;8.06;56.84
62946;BME280;52164;52.212;-1.010;2023-03-04T12:07:38;102094.39;;;8.13;57.06
62946;BME280;52164;52.212;-1.010;2023-03-04T12:10:41;102091.70;;;8.17;56.58
62946;BME280;52164;52.212;-1.010;2023-03-04T12:13:00;102091.00;;;8.23;56.49
62946;BME280;52164;52.212;-1.010;2023-03-04T12:18:22;102085.10;;;8.27;56.32
62946;BME280;52164;52.212;-1.010;2023-03-04T12:25:36;102075.36;;;8.28;56.29
62946;BME280;52164;52.212;-1.010;2023-03-04T12:31:25;102066.11;;;8.28;55.88
62946;BME280;52164;52.212;-1.010;2023-03-04T12:33:40;102063.62;;;8.29;55.56
62946;BME280;52164;52.212;-1.010;2023-03-04T12:38:37;102064.67;;;8.18;55.68
62946;BME280;52164;52.212;-1.010;2023-03-04T12:41:10;102062.20;;;8.13;55.48
62946;BME280;52164;52.212;-1.010;2023-03-04T12:43:50;102064.11;;;8.12;55.23
62946;BME280;52164;52.212;-1.010;2023-03-04T12:51:13;102049.65;;;8.10;55.47
62946;BME280;52164;52.212;-1.010;2023-03-04T12:54:02;102042.00;;;8.10;55.16
62946;BME280;52164;52.212;-1.010;2023-03-04T12:56:30;102039.61;;;8.07;55.52
62946;BME280;52164;52.212;-1.010;2023-03-04T12:58:57;102036.59;;;8.03;55.05
62946;BME280;52164;52.212;-1.010;2023-03-04T13:01:24;102032.92;;;8.00;55.43
62946;BME280;52164;52.212;-1.010;2023-03-04T13:03:56;102034.70;;;7.94;55.62
62946;BME280;52164;52.212;-1.010;2023-03-04T13:08:54;102028.63;;;7.78;55.68
62946;BME280;52164;52.212;-1.010;2023-03-04T13:14:23;102023.77;;;7.67;56.18
62946;BME280;52164;52.212;-1.010;2023-03-04T13:16:40;102021.75;;;7.65;56.32
62946;BME280;52164;52.212;-1.010;2023-03-04T13:21:20;102020.61;;;7.63;56.00
62946;BME280;52164;52.212;-1.010;2023-03-04T13:21:51;102018.67;;;7.63;55.69
62946;BME280;52164;52.212;-1.010;2023-03-04T13:24:50;102019.92;;;7.64;55.51
62946;BME280;52164;52.212;-1.010;2023-03-04T13:28:13;102015.89;;;7.60;55.51
62946;BME280;52164;52.212;-1.010;2023-03-04T13:29:49;102012.86;;;7.55;55.73
62946;BME280;52164;52.212;-1.010;2023-03-04T13:32:34;102011.88;;;7.52;55.85
62946;BME280;52164;52.212;-1.010;2023-03-04T13:35:22;102009.55;;;7.51;55.66
62946;BME280;52164;52.212;-1.010;2023-03-04T13:37:55;102007.79;;;7.52;55.57
62946;BME280;52164;52.212;-1.010;2023-03-04T13:42:48;102004.89;;;7.61;55.97
62946;BME280;52164;52.212;-1.010;2023-03-04T13:45:45;102009.38;;;7.67;55.39
62946;BME280;52164;52.212;-1.010;2023-03-04T13:47:58;102006.35;;;7.71;55.67
62946;BME280;52164;52.212;-1.010;2023-03-04T13:52:50;102000.69;;;7.82;55.52
62946;BME280;52164;52.212;-1.010;2023-03-04T13:55:32;101998.31;;;7.81;55.48